Time;durP1;ratioP1;P1;durP2;ratioP2;P2;SDS_P1;SDS_P2;PMS_P1;PMS_P2;Temp;Humidity;BMP_temperature;BMP_pressure;BME280_temperature;BME280_humidity;BME280_pressure;Samples;Min_cycle;Max_cycle;Signal;HPM_P1;HPM_P2
2021/04/02 00:00:50;;;;;;;31.83;26.90;;;12.90;99.90;;;;;;4955350;29;20456;-69
2021/04/02 00:03:19;;;;;;;30.63;26.17;;;12.90;99.90;;;;;;4955133;29;20456;-69
2021/04/02 00:05:46;;;;;;;31.90;27.43;;;12.90;99.90;;;;;;4955149;29;20492;-69
2021/04/02 00:08:13;;;;;;;35.57;27.60;;;12.90;99.90;;;;;;4955249;29;20457;-69
2021/04/02 00:10:47;;;;;;;27.70;24.10;;;12.80;99.90;;;;;;4955242;29;20455;-69
2021/04/02 00:13:15;;;;;;;31.00;26.87;;;12.70;99.90;;;;;;4955067;29;20534;-69
2021/04/02 00:15:41;;;;;;;29.83;22.93;;;12.60;99.90;;;;;;4955105;29;20816;-69
2021/04/02 00:18:09;;;;;;;37.23;27.30;;;12.60;99.90;;;;;;4955058;29;20492;-69
2021/04/02 00:20:36;;;;;;;31.97;28.57;;;12.50;99.90;;;;;;4955156;28;20683;-68
2021/04/02 00:23:04;;;;;;;33.50;26.63;;;12.30;99.90;;;;;;4954832;29;20452;-69
2021/04/02 00:25:31;;;;;;;37.57;29.80;;;12.20;99.90;;;;;;4955084;29;20456;-69
2021/04/02 00:27:57;;;;;;;33.03;29.40;;;12.10;99.90;;;;;;4955270;29;20463;-69
2021/04/02 00:30:28;;;;;;;30.87;27.50;;;12.10;99.90;;;;;;4954477;28;20799;-69
2021/04/02 00:32:55;;;;;;;45.20;30.97;;;12.20;99.90;;;;;;4955051;29;20465;-68
2021/04/02 00:35:22;;;;;;;40.83;31.80;;;12.20;99.90;;;;;;4954584;29;20631;-69
2021/04/02 00:37:48;;;;;;;32.97;29.23;;;12.10;99.90;;;;;;4954880;29;20879;-69
2021/04/02 00:40:19;;;;;;;32.57;29.17;;;12.10;99.90;;;;;;4967930;28;20451;-70
2021/04/02 00:42:46;;;;;;;32.70;26.70;;;12.00;99.90;;;;;;4974157;28;20456;-70
2021/04/02 00:45:14;;;;;;;36.13;27.50;;;12.00;99.90;;;;;;4974294;28;20470;-69
2021/04/02 00:47:40;;;;;;;37.77;29.23;;;11.90;99.90;;;;;;4973660;28;20510;-69
2021/04/02 00:50:11;;;;;;;35.00;29.17;;;11.80;99.90;;;;;;4973924;28;20456;-69
2021/04/02 00:52:38;;;;;;;32.20;28.07;;;11.80;99.90;;;;;;4974018;28;20449;-69
2021/04/02 00:55:06;;;;;;;35.70;30.43;;;11.70;99.90;;;;;;4973851;28;20448;-69
2021/04/02 00:57:33;;;;;;;33.10;28.50;;;11.60;99.90;;;;;;4973550;28;20440;-69
2021/04/02 01:00:00;;;;;;;39.20;33.30;;;11.40;99.90;;;;;;4974108;28;20452;-69
2021/04/02 01:02:27;;;;;;;50.07;32.80;;;11.40;99.90;;;;;;4973755;28;20860;-69
2021/04/02 01:04:53;;;;;;;44.40;30.50;;;11.30;99.90;;;;;;4973654;28;20456;-69
2021/04/02 01:07:19;;;;;;;40.23;33.87;;;11.20;99.90;;;;;;4973128;28;20542;-69
2021/04/02 01:09:46;;;;;;;39.80;34.20;;;11.20;99.90;;;;;;4973714;28;20459;-69
2021/04/02 01:12:13;;;;;;;45.37;35.00;;;11.10;99.90;;;;;;4973574;28;20467;-70
2021/04/02 01:14:40;;;;;;;42.40;33.80;;;11.00;99.90;;;;;;4973521;28;20460;-69
2021/04/02 01:17:06;;;;;;;49.30;34.87;;;11.00;99.90;;;;;;4972963;28;20491;-69
2021/04/02 01:19:39;;;;;;;50.83;35.03;;;11.00;99.90;;;;;;4973379;28;20479;-69
2021/04/02 01:22:07;;;;;;;43.53;36.83;;;11.10;99.90;;;;;;4973251;28;20456;-69
2021/04/02 01:24:52;;;;;;;47.60;35.13;;;11.10;99.90;;;;;;4973149;28;20459;-68
2021/04/02 01:27:33;;;;;;;43.57;33.60;;;11.20;99.90;;;;;;4969201;28;20492;-68
2021/04/02 01:30:08;;;;;;;40.67;32.90;;;11.30;99.90;;;;;;4973084;28;20448;-69
2021/04/02 01:32:39;;;;;;;36.50;32.40;;;11.40;99.90;;;;;;4973074;28;20467;-69
2021/04/02 01:35:15;;;;;;;37.10;30.00;;;11.50;99.90;;;;;;4972965;28;20777;-68
2021/04/02 01:37:46;;;;;;;38.97;31.13;;;11.50;99.90;;;;;;4972977;28;20462;-68
2021/04/02 01:40:16;;;;;;;43.53;31.10;;;11.40;99.90;;;;;;4959978;28;20452;-68
2021/04/02 01:42:43;;;;;;;34.83;31.13;;;11.50;99.90;;;;;;4953179;29;20472;-68
2021/04/02 01:45:13;;;;;;;38.00;31.43;;;11.40;99.90;;;;;;4953558;28;20508;-68
2021/04/02 01:47:40;;;;;;;37.43;30.60;;;11.30;99.90;;;;;;4953445;29;20488;-68
2021/04/02 01:50:09;;;;;;;34.40;28.87;;;11.20;99.90;;;;;;4953440;28;20523;-68
2021/04/02 01:52:36;;;;;;;36.97;31.70;;;11.20;99.90;;;;;;4953325;29;20676;-68
2021/04/02 01:55:03;;;;;;;37.80;32.23;;;11.20;99.90;;;;;;4953229;29;20459;-68
2021/04/02 01:57:30;;;;;;;41.40;30.63;;;11.20;99.90;;;;;;4953736;29;20452;-69
2021/04/02 01:59:58;;;;;;;41.50;29.97;;;11.10;99.90;;;;;;4953424;29;20460;-68
2021/04/02 02:02:26;;;;;;;36.20;29.17;;;11.00;99.90;;;;;;4953180;29;20453;-68
2021/04/02 02:04:54;;;;;;;41.33;34.23;;;11.00;99.90;;;;;;4953244;28;21113;-68
2021/04/02 02:07:20;;;;;;;35.73;31.57;;;10.80;99.90;;;;;;4953444;29;20897;-69
2021/04/02 02:09:50;;;;;;;36.97;30.60;;;10.70;99.90;;;;;;4953065;29;20506;-69
2021/04/02 02:12:18;;;;;;;40.03;32.30;;;10.70;99.90;;;;;;4953323;28;20459;-69
2021/04/02 02:14:49;;;;;;;39.27;32.13;;;10.50;99.90;;;;;;4953200;29;20459;-69
2021/04/02 02:17:20;;;;;;;35.40;30.50;;;10.50;99.90;;;;;;4953082;29;20486;-69
2021/04/02 02:19:49;;;;;;;55.93;32.63;;;10.50;99.90;;;;;;4953222;29;20467;-70
2021/04/02 02:22:17;;;;;;;40.33;31.60;;;10.40;99.90;;;;;;4952780;29;20982;-70
2021/04/02 02:24:44;;;;;;;38.73;32.23;;;10.30;99.90;;;;;;4953103;29;20511;-70
2021/04/02 02:27:10;;;;;;;42.23;32.37;;;10.20;99.90;;;;;;4953032;29;20491;-69
2021/04/02 02:29:37;;;;;;;39.17;31.03;;;10.20;99.90;;;;;;4952954;28;20457;-69
2021/04/02 02:32:05;;;;;;;34.77;30.30;;;10.20;99.90;;;;;;4953094;29;20474;-69
2021/04/02 02:34:32;;;;;;;37.63;32.63;;;10.10;99.90;;;;;;4952905;28;20458;-69
2021/04/02 02:37:00;;;;;;;37.33;33.50;;;10.00;99.90;;;;;;4952664;29;20456;-69
2021/04/02 02:39:27;;;;;;;37.20;30.13;;;9.90;99.90;;;;;;4959827;28;20451;-70
2021/04/02 02:41:54;;;;;;;35.10;29.63;;;9.90;99.90;;;;;;4972257;28;20475;-69
2021/04/02 02:44:20;;;;;;;31.23;27.93;;;9.90;99.90;;;;;;4971985;28;20965;-68
2021/04/02 02:46:46;;;;;;;37.40;30.10;;;9.80;99.90;;;;;;4972060;28;20525;-68
2021/04/02 02:49:15;;;;;;;34.20;29.00;;;9.80;99.90;;;;;;4972299;28;20459;-68
2021/04/02 02:51:43;;;;;;;37.07;28.27;;;9.90;99.90;;;;;;4972046;28;20448;-69
2021/04/02 02:54:14;;;;;;;34.50;29.47;;;9.90;99.90;;;;;;4975786;28;20446;-69
2021/04/02 02:56:43;;;;;;;33.83;29.57;;;9.70;99.90;;;;;;4976031;28;20859;-69
2021/04/02 02:59:14;;;;;;;43.40;33.10;;;9.60;99.90;;;;;;4975841;28;20455;-69
2021/04/02 03:01:42;;;;;;;37.10;31.97;;;9.50;99.90;;;;;;4976043;28;20465;-69
2021/04/02 03:04:10;;;;;;;37.90;31.13;;;9.50;99.90;;;;;;4975549;28;20464;-69
2021/04/02 03:06:39;;;;;;;39.87;33.77;;;9.40;99.90;;;;;;4975525;28;20479;-69
2021/04/02 03:09:06;;;;;;;37.53;32.40;;;9.40;99.90;;;;;;4975705;28;20499;-69
2021/04/02 03:11:34;;;;;;;35.20;31.50;;;9.30;99.90;;;;;;4975620;28;20449;-69
2021/04/02 03:14:02;;;;;;;40.90;31.03;;;9.30;99.90;;;;;;4975629;28;20451;-69
2021/04/02 03:16:29;;;;;;;37.80;29.63;;;9.20;99.90;;;;;;4975503;28;20886;-69
2021/04/02 03:18:58;;;;;;;32.73;29.33;;;9.10;99.90;;;;;;4975729;28;20443;-69
2021/04/02 03:21:25;;;;;;;35.10;27.60;;;9.10;99.90;;;;;;4975451;28;20447;-69
2021/04/02 03:23:53;;;;;;;31.10;27.80;;;9.10;99.90;;;;;;4975476;28;20884;-69
2021/04/02 03:26:20;;;;;;;29.80;26.70;;;9.10;99.90;;;;;;4975259;28;20506;-69
2021/04/02 03:28:48;;;;;;;27.97;25.00;;;9.10;99.90;;;;;;4975446;28;20458;-69
2021/04/02 03:31:16;;;;;;;28.40;25.63;;;9.10;99.90;;;;;;4975379;28;20451;-69
2021/04/02 03:33:51;;;;;;;27.30;24.60;;;9.00;99.90;;;;;;4975236;28;20466;-69
2021/04/02 03:36:20;;;;;;;23.80;21.60;;;8.90;99.90;;;;;;4975225;28;20524;-69
2021/04/02 03:38:48;;;;;;;27.10;24.30;;;8.90;99.90;;;;;;4973691;28;20473;-69
2021/04/02 03:41:20;;;;;;;26.97;24.37;;;8.90;99.90;;;;;;4955632;29;20448;-69
2021/04/02 03:43:49;;;;;;;23.77;21.47;;;8.80;99.90;;;;;;4955910;29;20966;-69
2021/04/02 03:46:17;;;;;;;22.73;20.53;;;8.80;99.90;;;;;;4955836;29;20480;-69
2021/04/02 03:48:45;;;;;;;21.53;19.83;;;8.80;99.90;;;;;;4956136;29;20452;-69
2021/04/02 03:51:19;;;;;;;20.83;18.90;;;8.90;99.90;;;;;;4955606;28;20452;-69
2021/04/02 03:53:47;;;;;;;16.57;15.40;;;9.00;99.90;;;;;;4955739;29;20459;-69
2021/04/02 03:56:17;;;;;;;18.53;17.13;;;9.10;99.90;;;;;;4955697;29;20452;-69
2021/04/02 03:58:47;;;;;;;16.37;15.00;;;9.20;99.90;;;;;;4955732;29;20822;-68
2021/04/02 04:01:16;;;;;;;15.80;14.70;;;9.20;99.90;;;;;;4955879;29;20783;-68
2021/04/02 04:03:45;;;;;;;17.10;15.70;;;9.20;99.90;;;;;;4954967;28;20516;-69
2021/04/02 04:06:14;;;;;;;16.23;14.67;;;9.20;99.90;;;;;;4955075;29;20487;-69
2021/04/02 04:08:42;;;;;;;17.17;15.57;;;9.30;99.90;;;;;;4955469;29;20452;-69
2021/04/02 04:11:10;;;;;;;16.53;15.13;;;9.30;99.90;;;;;;4955538;28;20469;-69
2021/04/02 04:13:38;;;;;;;14.77;13.53;;;9.20;99.90;;;;;;4955079;29;20567;-69
2021/04/02 04:16:07;;;;;;;15.83;14.60;;;9.10;99.90;;;;;;4955141;29;21062;-69
2021/04/02 04:18:35;;;;;;;14.33;13.33;;;9.20;99.90;;;;;;4954940;29;20488;-68
2021/04/02 04:21:04;;;;;;;14.43;13.47;;;9.10;99.90;;;;;;4955143;29;20445;-69
2021/04/02 04:23:33;;;;;;;15.03;13.83;;;9.20;99.90;;;;;;4955198;29;20460;-69
2021/04/02 04:26:00;;;;;;;15.00;14.10;;;9.10;99.90;;;;;;4955085;29;20476;-68
2021/04/02 04:28:28;;;;;;;14.80;13.70;;;9.10;99.90;;;;;;4954783;29;20457;-68
2021/04/02 04:30:58;;;;;;;14.03;13.23;;;9.10;99.90;;;;;;4954947;29;20993;-68
2021/04/02 04:33:27;;;;;;;13.53;12.73;;;9.10;99.90;;;;;;4954982;29;20565;-68
2021/04/02 04:35:54;;;;;;;14.60;13.70;;;9.00;99.90;;;;;;4955035;29;20487;-67
2021/04/02 04:38:23;;;;;;;12.97;11.80;;;8.90;99.90;;;;;;4954577;29;20508;-68
2021/04/02 04:40:51;;;;;;;13.80;12.37;;;8.90;99.90;;;;;;4972493;28;20448;-68
2021/04/02 04:43:19;;;;;;;14.70;13.60;;;8.80;99.90;;;;;;4974024;28;20463;-68
2021/04/02 04:45:45;;;;;;;12.47;11.80;;;8.80;99.90;;;;;;4974102;28;20456;-68
2021/04/02 04:48:12;;;;;;;13.70;12.90;;;8.80;99.90;;;;;;4973741;28;20491;-68
2021/04/02 04:50:39;;;;;;;12.03;11.43;;;8.60;99.90;;;;;;4974239;28;20455;-69
2021/04/02 04:53:11;;;;;;;13.27;12.40;;;8.60;99.90;;;;;;4974109;28;20552;-69
2021/04/02 04:55:40;;;;;;;13.87;12.87;;;8.50;99.90;;;;;;4973896;28;20451;-67
2021/04/02 04:58:11;;;;;;;11.77;10.97;;;8.50;99.90;;;;;;4973740;28;20452;-68
2021/04/02 05:00:39;;;;;;;12.60;11.80;;;8.40;99.90;;;;;;4973641;28;20574;-68
2021/04/02 05:03:06;;;;;;;12.87;11.80;;;8.50;99.90;;;;;;4973694;28;21237;-68
2021/04/02 05:05:35;;;;;;;12.07;10.90;;;8.40;99.90;;;;;;4973751;28;20459;-68
2021/04/02 05:08:05;;;;;;;11.67;11.03;;;8.40;99.90;;;;;;4964100;28;20448;-67
2021/04/02 05:10:32;;;;;;;12.47;11.20;;;8.30;99.90;;;;;;4961598;28;20456;-66
2021/04/02 05:13:00;;;;;;;13.40;12.67;;;8.30;99.90;;;;;;4962447;28;20451;-67
2021/04/02 05:15:28;;;;;;;11.83;11.10;;;8.20;99.90;;;;;;4963313;28;20471;-67
2021/04/02 05:17:54;;;;;;;13.50;12.40;;;8.20;99.90;;;;;;4961613;28;20504;-67
2021/04/02 05:20:31;;;;;;;12.13;11.37;;;8.20;99.90;;;;;;4962099;28;20452;-66
2021/04/02 05:22:57;;;;;;;11.87;11.17;;;8.20;99.90;;;;;;4962367;28;20820;-67
2021/04/02 05:25:24;;;;;;;13.10;12.10;;;8.20;99.90;;;;;;4961440;28;20456;-67
2021/04/02 05:27:50;;;;;;;12.60;11.70;;;8.10;99.90;;;;;;4963202;28;20439;-67
2021/04/02 05:30:17;;;;;;;12.53;11.70;;;8.10;99.90;;;;;;4961847;28;20456;-66
2021/04/02 05:32:44;;;;;;;12.50;11.47;;;8.10;99.90;;;;;;4961478;28;20532;-66
2021/04/02 05:35:11;;;;;;;11.90;10.80;;;8.10;99.90;;;;;;4963235;28;20448;-67
2021/04/02 05:37:37;;;;;;;11.67;11.07;;;8.10;99.90;;;;;;4961809;28;20948;-67
2021/04/02 05:40:04;;;;;;;12.57;11.90;;;8.10;99.90;;;;;;4962455;28;20891;-68
2021/04/02 05:42:36;;;;;;;12.20;11.40;;;8.20;99.90;;;;;;4962540;28;20452;-67
2021/04/02 05:45:03;;;;;;;12.80;12.00;;;8.20;99.90;;;;;;4970238;28;20506;-67
2021/04/02 05:47:31;;;;;;;13.60;12.90;;;8.20;99.90;;;;;;4972886;28;20471;-67
2021/04/02 05:50:01;;;;;;;14.23;13.03;;;8.20;99.90;;;;;;4972997;28;20464;-67
2021/04/02 05:52:29;;;;;;;14.30;13.60;;;8.20;99.90;;;;;;4972665;28;20452;-67
2021/04/02 05:55:00;;;;;;;13.87;12.50;;;8.40;99.90;;;;;;4972650;28;20535;-67
2021/04/02 05:57:27;;;;;;;12.00;11.20;;;8.90;99.90;;;;;;4972411;28;20494;-67
2021/04/02 05:59:56;;;;;;;10.50;10.00;;;9.30;99.90;;;;;;4972761;28;20519;-68
2021/04/02 06:02:22;;;;;;;11.90;11.30;;;9.90;99.90;;;;;;4972755;28;20459;-68
2021/04/02 06:04:49;;;;;;;13.00;12.20;;;10.40;99.90;;;;;;4972592;28;20455;-67
2021/04/02 06:07:15;;;;;;;11.90;11.30;;;11.00;99.90;;;;;;4972463;28;20459;-67
2021/04/02 06:09:41;;;;;;;12.17;11.13;;;11.30;99.90;;;;;;4972653;28;20451;-68
2021/04/02 06:12:10;;;;;;;12.37;11.60;;;11.60;99.10;;;;;;4972438;28;20455;-67
2021/04/02 06:14:36;;;;;;;11.83;11.23;;;11.80;98.30;;;;;;4972359;28;20459;-67
2021/04/02 06:17:04;;;;;;;13.70;12.80;;;12.10;97.40;;;;;;4972200;28;20500;-68
2021/04/02 06:19:30;;;;;;;13.00;11.90;;;12.30;97.30;;;;;;4972690;28;20514;-68
2021/04/02 06:21:57;;;;;;;13.97;13.17;;;12.50;96.40;;;;;;4972220;28;20949;-68
2021/04/02 06:24:36;;;;;;;16.10;15.17;;;12.70;96.10;;;;;;4972334;28;20452;-68
2021/04/02 06:27:04;;;;;;;14.67;13.67;;;12.80;95.60;;;;;;4971726;28;20458;-68
2021/04/02 06:29:31;;;;;;;13.43;12.57;;;12.90;95.40;;;;;;4972385;28;20816;-68
2021/04/02 06:31:57;;;;;;;13.20;12.40;;;12.70;95.30;;;;;;4972481;28;20455;-68
2021/04/02 06:34:27;;;;;;;14.57;13.57;;;12.70;95.30;;;;;;4971927;28;20942;-67
2021/04/02 06:37:00;;;;;;;13.50;12.70;;;12.50;95.20;;;;;;4972058;28;20530;-68
2021/04/02 06:39:30;;;;;;;14.30;13.50;;;12.70;95.20;;;;;;4965667;28;20931;-67
2021/04/02 06:41:58;;;;;;;14.50;13.47;;;12.60;95.00;;;;;;4952860;29;20484;-67
2021/04/02 06:44:28;;;;;;;14.40;13.50;;;12.50;95.40;;;;;;4952750;29;20459;-67
2021/04/02 06:46:56;;;;;;;13.43;12.63;;;12.30;95.30;;;;;;4952793;28;20815;-69
2021/04/02 06:49:22;;;;;;;13.20;12.30;;;12.20;95.90;;;;;;4952861;29;20464;-70
2021/04/02 06:51:51;;;;;;;14.33;13.20;;;12.60;95.90;;;;;;4952847;29;20868;-69
2021/04/02 06:54:19;;;;;;;14.43;13.53;;;13.20;94.40;;;;;;4952487;29;20461;-69
2021/04/02 06:56:48;;;;;;;12.93;12.20;;;13.40;93.60;;;;;;4952959;29;20583;-69
2021/04/02 06:59:18;;;;;;;13.37;12.30;;;13.60;93.20;;;;;;4952888;28;20464;-68
2021/04/02 07:01:47;;;;;;;12.27;11.53;;;13.60;93.10;;;;;;4952872;29;20461;-68
2021/04/02 07:04:15;;;;;;;13.23;12.33;;;14.10;92.20;;;;;;4952634;28;20449;-68
2021/04/02 07:06:42;;;;;;;14.50;13.30;;;14.30;91.90;;;;;;4952497;29;20448;-69
2021/04/02 07:09:11;;;;;;;12.37;11.53;;;14.70;91.10;;;;;;4952521;28;20520;-68
2021/04/02 07:11:39;;;;;;;15.80;14.67;;;15.30;90.10;;;;;;4952769;28;20456;-71
2021/04/02 07:14:07;;;;;;;14.67;13.73;;;15.80;87.80;;;;;;4952233;29;20472;-70
2021/04/02 07:16:34;;;;;;;13.67;12.77;;;16.00;86.50;;;;;;4952101;28;20591;-73
2021/04/02 07:19:01;;;;;;;14.03;13.03;;;16.20;86.00;;;;;;4952589;29;20503;-72
2021/04/02 07:21:29;;;;;;;13.30;12.50;;;15.80;84.80;;;;;;4952207;29;20484;-72
2021/04/02 07:23:56;;;;;;;13.63;12.80;;;15.80;85.70;;;;;;4951853;29;20947;-72
2021/04/02 07:26:23;;;;;;;14.50;13.80;;;16.00;85.30;;;;;;4951930;29;20459;-73
2021/04/02 07:28:50;;;;;;;14.43;13.53;;;16.30;83.80;;;;;;4952100;28;20547;-72
2021/04/02 07:31:19;;;;;;;15.60;14.53;;;16.20;82.80;;;;;;4952279;29;20456;-72
2021/04/02 07:33:47;;;;;;;15.17;14.27;;;16.50;82.70;;;;;;4952057;29;20877;-72
2021/04/02 07:36:15;;;;;;;15.23;14.33;;;16.50;83.00;;;;;;4952152;29;20449;-73
2021/04/02 07:38:47;;;;;;;14.63;13.93;;;16.90;81.80;;;;;;4953183;28;20459;-73
2021/04/02 07:41:18;;;;;;;15.57;14.67;;;17.60;79.30;;;;;;4975133;28;20460;-73
2021/04/02 07:43:50;;;;;;;15.30;14.30;;;17.00;78.50;;;;;;4975215;28;20451;-73
2021/04/02 07:46:20;;;;;;;14.40;13.60;;;17.00;80.10;;;;;;4974892;28;20464;-73
2021/04/02 07:48:49;;;;;;;16.93;15.93;;;17.30;80.00;;;;;;4974978;28;20483;-73
2021/04/02 07:51:16;;;;;;;15.53;14.63;;;17.60;78.40;;;;;;4974828;28;20531;-74
2021/04/02 07:53:46;;;;;;;15.10;14.30;;;18.10;76.40;;;;;;4974909;28;20467;-73
2021/04/02 07:56:14;;;;;;;14.80;13.90;;;18.30;74.70;;;;;;4974817;28;20483;-73
2021/04/02 07:58:46;;;;;;;15.83;14.83;;;18.30;74.00;;;;;;4974834;28;20452;-73
2021/04/02 08:01:15;;;;;;;16.40;15.13;;;18.10;74.30;;;;;;4974796;28;20447;-73
2021/04/02 08:03:43;;;;;;;15.00;13.90;;;17.20;75.70;;;;;;4974639;28;20443;-73
2021/04/02 08:06:11;;;;;;;15.63;14.73;;;17.50;75.60;;;;;;4974260;28;20474;-74
2021/04/02 08:08:45;;;;;;;15.83;14.83;;;17.40;76.30;;;;;;4974407;28;20487;-73
2021/04/02 08:11:16;;;;;;;15.87;15.00;;;17.90;74.50;;;;;;4974529;28;20451;-73
2021/04/02 08:13:57;;;;;;;17.17;16.17;;;18.20;73.40;;;;;;4974441;28;20452;-74
2021/04/02 08:16:38;;;;;;;17.33;16.17;;;19.10;71.50;;;;;;4974127;28;20479;-73
2021/04/02 08:19:05;;;;;;;17.10;16.10;;;18.70;70.20;;;;;;4974354;28;20584;-73
2021/04/02 08:21:33;;;;;;;17.57;16.40;;;18.60;71.00;;;;;;4974107;28;20452;-74
2021/04/02 08:23:59;;;;;;;16.53;15.53;;;19.30;70.00;;;;;;4974317;28;20448;-73
2021/04/02 08:26:30;;;;;;;16.03;15.03;;;19.60;68.30;;;;;;4974051;28;20471;-73
2021/04/02 08:28:56;;;;;;;17.00;16.00;;;19.40;67.70;;;;;;4974105;28;20455;-73
2021/04/02 08:31:23;;;;;;;17.30;16.20;;;18.90;67.90;;;;;;4974205;28;20448;-73
2021/04/02 08:33:52;;;;;;;16.17;15.27;;;18.70;69.90;;;;;;4974072;28;20459;-73
2021/04/02 08:36:19;;;;;;;16.10;15.10;;;18.60;70.20;;;;;;4974025;28;20455;-73
2021/04/02 08:38:47;;;;;;;17.87;16.40;;;18.30;70.50;;;;;;4972590;28;20542;-73
2021/04/02 08:41:18;;;;;;;16.67;15.63;;;18.60;70.20;;;;;;4974026;28;20455;-74
2021/04/02 08:43:44;;;;;;;17.10;16.00;;;18.80;70.90;;;;;;4973954;28;20452;-73
2021/04/02 08:46:10;;;;;;;17.23;16.13;;;19.00;68.30;;;;;;4973884;28;20463;-73
2021/04/02 08:48:38;;;;;;;18.13;16.90;;;18.60;69.70;;;;;;4973745;28;20490;-73
2021/04/02 08:51:05;;;;;;;15.77;14.83;;;18.80;69.80;;;;;;4973500;28;20482;-72
2021/04/02 08:53:40;;;;;;;15.73;14.50;;;19.20;69.00;;;;;;4973793;28;20462;-73
2021/04/02 08:56:07;;;;;;;17.47;16.10;;;19.80;68.20;;;;;;4973606;28;20978;-71
2021/04/02 08:58:34;;;;;;;17.27;16.27;;;20.40;66.00;;;;;;4973520;28;20846;-69
2021/04/02 09:01:01;;;;;;;17.17;16.17;;;20.40;65.80;;;;;;4973735;28;20455;-71
2021/04/02 09:03:28;;;;;;;17.17;16.23;;;20.60;64.70;;;;;;4973840;28;20443;-70
2021/04/02 09:05:55;;;;;;;18.00;16.90;;;20.10;64.60;;;;;;4973524;28;20510;-69
2021/04/02 09:08:22;;;;;;;17.10;16.00;;;20.20;65.20;;;;;;4973532;28;20471;-70
2021/04/02 09:10:48;;;;;;;16.43;15.53;;;20.90;64.00;;;;;;4973366;28;20456;-71
2021/04/02 09:13:15;;;;;;;18.43;17.13;;;21.00;62.80;;;;;;4970173;28;20463;-71
2021/04/02 09:15:46;;;;;;;18.50;17.30;;;21.60;62.70;;;;;;4961431;28;20933;-69
2021/04/02 09:18:16;;;;;;;17.27;16.20;;;22.70;59.30;;;;;;4961836;28;21080;-72
2021/04/02 09:20:43;;;;;;;18.67;17.10;;;23.40;58.00;;;;;;4964303;28;20577;-71
2021/04/02 09:23:10;;;;;;;17.73;16.83;;;23.40;55.70;;;;;;4961473;28;20496;-72
2021/04/02 09:25:43;;;;;;;17.33;16.43;;;23.70;56.10;;;;;;4962020;28;20868;-71
2021/04/02 09:28:09;;;;;;;19.03;17.80;;;24.10;54.30;;;;;;4961389;28;20978;-71
2021/04/02 09:30:35;;;;;;;19.40;18.10;;;23.50;54.90;;;;;;4961938;28;20444;-71
2021/04/02 09:33:02;;;;;;;20.63;19.37;;;23.90;54.00;;;;;;4962635;28;20968;-70
2021/04/02 09:35:29;;;;;;;18.10;17.00;;;24.00;52.70;;;;;;4961117;28;20504;-69
2021/04/02 09:37:55;;;;;;;18.47;17.37;;;22.20;55.30;;;;;;4961911;28;20494;-70
2021/04/02 09:40:27;;;;;;;18.40;17.20;;;21.10;57.30;;;;;;4961232;28;20518;-70
2021/04/02 09:42:55;;;;;;;18.57;17.27;;;19.40;59.20;;;;;;4961294;28;20480;-70
2021/04/02 09:45:26;;;;;;;17.60;16.60;;;18.50;63.10;;;;;;4960760;28;20890;-69
2021/04/02 09:47:52;;;;;;;19.47;17.50;;;18.00;64.00;;;;;;4961330;28;20519;-69
2021/04/02 09:50:19;;;;;;;16.27;15.20;;;17.50;66.60;;;;;;4961233;28;20452;-69
2021/04/02 09:52:47;;;;;;;17.63;16.47;;;17.30;68.50;;;;;;4962457;28;20722;-69
2021/04/02 09:55:14;;;;;;;18.27;17.03;;;17.00;69.00;;;;;;4961038;28;20448;-69
2021/04/02 09:57:41;;;;;;;18.17;16.97;;;17.00;69.30;;;;;;4960803;28;21067;-69
2021/04/02 10:00:10;;;;;;;17.90;16.67;;;17.30;66.60;;;;;;4962274;28;20957;-69
2021/04/02 10:02:36;;;;;;;17.67;16.57;;;17.50;66.60;;;;;;4960731;28;20472;-70
2021/04/02 10:05:04;;;;;;;18.93;17.83;;;17.70;65.70;;;;;;4960174;28;20502;-70
2021/04/02 10:07:31;;;;;;;19.27;18.03;;;18.30;66.40;;;;;;4960780;28;20546;-70
2021/04/02 10:09:57;;;;;;;18.50;17.10;;;19.60;60.00;;;;;;4961005;28;20452;-70
2021/04/02 10:12:23;;;;;;;18.00;17.00;;;20.50;57.50;;;;;;4962223;28;20463;-70
2021/04/02 10:14:49;;;;;;;18.03;16.83;;;21.30;56.20;;;;;;4960382;28;20504;-70
2021/04/02 10:17:17;;;;;;;18.23;17.13;;;22.40;54.00;;;;;;4960697;28;20495;-71
2021/04/02 10:19:43;;;;;;;17.10;16.20;;;22.80;53.00;;;;;;4962064;28;20471;-70
2021/04/02 10:22:09;;;;;;;22.87;20.93;;;22.90;52.60;;;;;;4960533;28;20472;-71
2021/04/02 10:24:36;;;;;;;18.67;17.37;;;22.60;53.50;;;;;;4961119;28;20492;-71
2021/04/02 10:27:03;;;;;;;17.90;16.80;;;23.30;53.10;;;;;;4961875;28;20437;-71
2021/04/02 10:29:31;;;;;;;16.50;15.57;;;24.40;50.30;;;;;;4960177;28;20497;-71
2021/04/02 10:31:57;;;;;;;18.20;17.10;;;24.30;48.50;;;;;;4960884;28;20454;-70
2021/04/02 10:34:24;;;;;;;17.40;16.40;;;23.70;49.10;;;;;;4961969;28;20452;-70
2021/04/02 10:36:51;;;;;;;17.17;16.17;;;23.60;49.40;;;;;;4960009;28;20494;-71
2021/04/02 10:39:17;;;;;;;19.17;17.87;;;23.50;49.70;;;;;;4960866;28;20455;-70
2021/04/02 10:41:44;;;;;;;18.70;17.60;;;23.50;50.10;;;;;;4959717;28;20515;-71
2021/04/02 10:44:10;;;;;;;17.10;16.20;;;22.50;49.60;;;;;;4961481;28;20471;-71
2021/04/02 10:46:36;;;;;;;18.80;17.70;;;22.60;50.90;;;;;;4960459;28;20449;-71
2021/04/02 10:49:03;;;;;;;19.00;18.00;;;22.40;51.80;;;;;;4971585;28;20459;-69
2021/04/02 10:51:30;;;;;;;19.60;18.30;;;21.20;53.30;;;;;;4971599;28;20455;-68
2021/04/02 10:54:01;;;;;;;17.97;16.87;;;20.20;54.80;;;;;;4971666;28;20489;-68
2021/04/02 10:56:28;;;;;;;18.40;17.20;;;19.90;56.40;;;;;;4971289;28;20466;-69
2021/04/02 10:58:55;;;;;;;17.00;16.00;;;20.40;55.70;;;;;;4971197;28;20514;-68
2021/04/02 11:01:21;;;;;;;19.83;18.63;;;21.50;54.20;;;;;;4971271;28;20764;-68
2021/04/02 11:03:48;;;;;;;17.60;16.50;;;21.00;53.20;;;;;;4971129;28;20466;-69
2021/04/02 11:06:14;;;;;;;17.53;16.50;;;20.70;54.30;;;;;;4971216;28;20456;-69
2021/04/02 11:08:41;;;;;;;17.70;16.60;;;21.20;53.40;;;;;;4971061;28;20507;-69
2021/04/02 11:11:07;;;;;;;19.60;18.40;;;21.80;52.80;;;;;;4971122;28;20455;-69
2021/04/02 11:13:33;;;;;;;18.53;17.33;;;22.90;50.60;;;;;;4972058;28;20451;-69
2021/04/02 11:16:00;;;;;;;18.77;17.67;;;23.40;49.70;;;;;;4974836;28;20463;-69
2021/04/02 11:18:26;;;;;;;18.27;17.20;;;23.10;48.80;;;;;;4974571;28;20487;-70
2021/04/02 11:20:52;;;;;;;17.90;16.70;;;21.80;49.90;;;;;;4974823;28;20455;-70
2021/04/02 11:23:18;;;;;;;17.53;16.47;;;20.50;51.90;;;;;;4975053;28;20458;-69
2021/04/02 11:25:46;;;;;;;17.43;16.50;;;20.60;53.00;;;;;;4974970;28;20462;-70
2021/04/02 11:28:12;;;;;;;17.57;16.17;;;21.60;52.00;;;;;;4974675;28;20514;-70
2021/04/02 11:30:38;;;;;;;18.10;17.10;;;21.80;51.40;;;;;;4974499;28;20937;-70
2021/04/02 11:33:05;;;;;;;16.20;15.30;;;22.30;49.70;;;;;;4974453;28;20458;-70
2021/04/02 11:35:33;;;;;;;16.03;15.13;;;21.00;48.50;;;;;;4974124;28;20474;-70
2021/04/02 11:37:59;;;;;;;16.60;15.67;;;20.60;50.20;;;;;;4974238;28;20541;-71
2021/04/02 11:40:26;;;;;;;16.47;15.57;;;20.70;50.30;;;;;;4959764;28;20463;-71
2021/04/02 11:42:53;;;;;;;17.70;16.40;;;20.50;50.00;;;;;;4954922;29;20467;-70
2021/04/02 11:45:20;;;;;;;17.90;16.80;;;21.00;50.30;;;;;;4954795;29;20464;-70
2021/04/02 11:47:46;;;;;;;17.40;16.40;;;21.40;49.80;;;;;;4954962;28;20939;-70
2021/04/02 11:50:13;;;;;;;16.97;15.90;;;22.20;49.40;;;;;;4955084;29;20479;-70
2021/04/02 11:52:40;;;;;;;16.57;15.57;;;21.90;49.30;;;;;;4954817;29;20548;-70
2021/04/02 11:55:07;;;;;;;15.70;14.80;;;22.60;48.40;;;;;;4954795;28;20469;-71
2021/04/02 11:57:34;;;;;;;16.40;15.50;;;22.50;48.00;;;;;;4954726;28;20492;-71
2021/04/02 12:00:02;;;;;;;16.47;15.47;;;21.70;48.30;;;;;;4954644;28;20540;-71
2021/04/02 12:02:28;;;;;;;15.70;14.90;;;21.50;49.10;;;;;;4954663;28;20464;-70
2021/04/02 12:04:54;;;;;;;17.10;15.40;;;21.60;49.40;;;;;;4954590;28;20463;-71
2021/04/02 12:07:20;;;;;;;14.47;13.67;;;21.90;47.70;;;;;;4954633;28;20490;-70
2021/04/02 12:09:46;;;;;;;15.97;15.17;;;21.70;48.50;;;;;;4954395;28;20515;-70
2021/04/02 12:12:13;;;;;;;15.47;14.67;;;22.00;46.40;;;;;;4954659;29;20452;-71
2021/04/02 12:14:39;;;;;;;15.07;14.27;;;22.00;46.20;;;;;;4954374;28;20467;-71
2021/04/02 12:17:06;;;;;;;16.23;15.43;;;21.80;46.70;;;;;;4954246;29;20874;-71
2021/04/02 12:19:32;;;;;;;15.10;14.30;;;22.70;45.50;;;;;;4954484;29;20460;-71
2021/04/02 12:21:59;;;;;;;15.57;14.67;;;22.40;46.20;;;;;;4954465;29;20448;-71
2021/04/02 12:24:25;;;;;;;15.17;14.20;;;22.60;46.30;;;;;;4954214;28;20468;-70
2021/04/02 12:26:51;;;;;;;14.70;14.00;;;22.70;46.60;;;;;;4953632;28;20448;-71
2021/04/02 12:29:17;;;;;;;14.00;13.20;;;22.80;45.90;;;;;;4954193;29;20461;-70
2021/04/02 12:31:43;;;;;;;14.60;13.80;;;23.40;46.00;;;;;;4954465;28;20879;-71
2021/04/02 12:34:10;;;;;;;13.77;12.97;;;23.40;45.20;;;;;;4954102;28;20455;-70